Terminal Aerodrome Forecast
Issued by NWS Wichita, KS

Home | Current Version | Previous Version | Text Only | Print | Product List | Glossary On
Versions: 1 2 3 4 5 6 7 8 9 10 11 12 13 14 15 16 17 18 19 20 21 22 23 24 25
000
FTUS43 KICT 281137
TAFICT
TAF
KICT 281137Z 2812/2912 10006KT P6SM OVC012
     FM281600 10013KT P6SM BKN020
     FM282100 10015KT P6SM VCSH OVC020
     FM290300 07016G26KT 4SM +SHRA VCTS OVC008CB
     FM290700 06016G27KT 2SM SHRA VCTS OVC004CB=

USA.gov is the U.S. government's official web portal to all federal, state and local government web resources and services.